ETD07 LEZL-LFOT
Flight info
| Callsign | ETD07 |
|---|---|
| Flight time | 1h 39m |
| Altitude | 34000 |
| Route | HIJ5G PARKA N858 ABRIX DCT ETPAR DCT BOKNO DCT OMARI |
| Aircraft | B77W/H-SDE1E2E3FGHIJ2J3J4J5M1RWXYZ/S |
Departure
| Time | 2026-05-07 13:43 |
|---|---|
| Airport | Seville Airport (LEZL) |
Arrival
| Time | 2026-05-07 15:22 |
|---|---|
| Airport | Tours Val de Loire Airport (LFOT) |
| Time | Latitude | Longitude | Altitude | Speed | Heading |
|---|---|---|---|---|---|
| 2026-05-07 13:24 | 37.42216 | -5.89969 | 125 ft | 0 kts | 315° |
| 2026-05-07 13:28 | 37.42214 | -5.89966 | 125 ft | 2 kts | 315° |
| 2026-05-07 13:28 | 37.42203 | -5.89953 | 125 ft | 3 kts | 315° |
| 2026-05-07 13:28 | 37.42189 | -5.89936 | 125 ft | 3 kts | 315° |
| 2026-05-07 13:28 | 37.42175 | -5.89918 | 125 ft | 3 kts | 315° |
| 2026-05-07 13:29 | 37.42160 | -5.89899 | 125 ft | 3 kts | 315° |
| 2026-05-07 13:29 | 37.42162 | -5.89902 | 125 ft | 0 kts | 315° |
| 2026-05-07 13:29 | 37.42172 | -5.89906 | 125 ft | 3 kts | 5° |
| 2026-05-07 13:29 | 37.42173 | -5.89887 | 125 ft | 3 kts | 131° |
| 2026-05-07 13:30 | 37.42163 | -5.89878 | 125 ft | 0 kts | 150° |
| 2026-05-07 13:31 | 37.42150 | -5.89869 | 125 ft | 3 kts | 150° |
| 2026-05-07 13:32 | 37.42134 | -5.89855 | 125 ft | 3 kts | 143° |
| 2026-05-07 13:32 | 37.42095 | -5.89813 | 125 ft | 9 kts | 137° |
| 2026-05-07 13:32 | 37.42069 | -5.89758 | 125 ft | 7 kts | 69° |
| 2026-05-07 13:32 | 37.42100 | -5.89717 | 125 ft | 6 kts | 44° |
| 2026-05-07 13:33 | 37.42111 | -5.89704 | 125 ft | 0 kts | 44° |
| 2026-05-07 13:35 | 37.42116 | -5.89698 | 125 ft | 3 kts | 44° |
| 2026-05-07 13:35 | 37.42137 | -5.89673 | 125 ft | 6 kts | 44° |
| 2026-05-07 13:35 | 37.42164 | -5.89640 | 125 ft | 5 kts | 44° |
| 2026-05-07 13:35 | 37.42171 | -5.89581 | 125 ft | 10 kts | 117° |
| 2026-05-07 13:36 | 37.42125 | -5.89522 | 125 ft | 9 kts | 136° |
| 2026-05-07 13:36 | 37.42083 | -5.89468 | 125 ft | 9 kts | 134° |
| 2026-05-07 13:36 | 37.42040 | -5.89418 | 125 ft | 8 kts | 140° |
| 2026-05-07 13:36 | 37.41989 | -5.89358 | 125 ft | 11 kts | 120° |
| 2026-05-07 13:37 | 37.41984 | -5.89235 | 125 ft | 17 kts | 85° |
| 2026-05-07 13:37 | 37.41986 | -5.89090 | 125 ft | 16 kts | 91° |
| 2026-05-07 13:37 | 37.41985 | -5.88953 | 125 ft | 15 kts | 90° |
| 2026-05-07 13:37 | 37.41985 | -5.88825 | 125 ft | 14 kts | 89° |
| 2026-05-07 13:38 | 37.41986 | -5.88704 | 125 ft | 13 kts | 89° |
| 2026-05-07 13:38 | 37.41987 | -5.88592 | 125 ft | 12 kts | 89° |
| 2026-05-07 13:38 | 37.41988 | -5.88486 | 125 ft | 12 kts | 89° |
| 2026-05-07 13:38 | 37.41988 | -5.88387 | 125 ft | 11 kts | 89° |
| 2026-05-07 13:39 | 37.41987 | -5.88295 | 125 ft | 10 kts | 91° |
| 2026-05-07 13:39 | 37.41986 | -5.88209 | 125 ft | 10 kts | 90° |
| 2026-05-07 13:39 | 37.41986 | -5.88127 | 125 ft | 9 kts | 90° |
| 2026-05-07 13:39 | 37.41986 | -5.88033 | 125 ft | 14 kts | 90° |
| 2026-05-07 13:40 | 37.41986 | -5.87912 | 125 ft | 13 kts | 90° |
| 2026-05-07 13:40 | 37.41986 | -5.87836 | 125 ft | 13 kts | 90° |
| 2026-05-07 13:40 | 37.41987 | -5.87727 | 125 ft | 12 kts | 90° |
| 2026-05-07 13:40 | 37.41987 | -5.87625 | 125 ft | 11 kts | 90° |
| 2026-05-07 13:41 | 37.41984 | -5.87531 | 125 ft | 10 kts | 105° |
| 2026-05-07 13:41 | 37.41941 | -5.87462 | 125 ft | 10 kts | 146° |
| 2026-05-07 13:41 | 37.41881 | -5.87428 | 125 ft | 9 kts | 171° |
| 2026-05-07 13:41 | 37.41818 | -5.87432 | 125 ft | 9 kts | 195° |
| 2026-05-07 13:42 | 37.41796 | -5.87497 | 125 ft | 9 kts | 269° |
| 2026-05-07 13:42 | 37.41799 | -5.87678 | 125 ft | 41 kts | 270° |
| 2026-05-07 13:42 | 37.41796 | -5.88419 | 125 ft | 128 kts | 269° |
| 2026-05-07 13:42 | 37.41787 | -5.89831 | 330 ft | 180 kts | 268° |
| 2026-05-07 13:43 | 37.41798 | -5.91422 | 1290 ft | 182 kts | 269° |
| 2026-05-07 13:43 | 37.41851 | -5.93014 | 2292 ft | 184 kts | 270° |
| 2026-05-07 13:43 | 37.41907 | -5.94626 | 3028 ft | 185 kts | 270° |
| 2026-05-07 13:43 | 37.42059 | -5.96274 | 3602 ft | 200 kts | 285° |
| 2026-05-07 13:44 | 37.42901 | -5.97789 | 3888 ft | 230 kts | 317° |
| 2026-05-07 13:44 | 37.44429 | -5.98660 | 4253 ft | 256 kts | 344° |
| 2026-05-07 13:44 | 37.46256 | -5.98987 | 4842 ft | 273 kts | 352° |
| 2026-05-07 13:44 | 37.48174 | -5.99206 | 5711 ft | 280 kts | 354° |
| 2026-05-07 13:45 | 37.50137 | -5.99381 | 6644 ft | 283 kts | 354° |
| 2026-05-07 13:45 | 37.52052 | -5.99985 | 7405 ft | 287 kts | 333° |
| 2026-05-07 13:45 | 37.53624 | -6.01542 | 8129 ft | 289 kts | 311° |
| 2026-05-07 13:45 | 37.54874 | -6.03539 | 8975 ft | 293 kts | 306° |
| 2026-05-07 13:46 | 37.56033 | -6.05656 | 9866 ft | 293 kts | 301° |
| 2026-05-07 13:46 | 37.57121 | -6.07851 | 10643 ft | 302 kts | 305° |
| 2026-05-07 13:46 | 37.58712 | -6.09678 | 11164 ft | 321 kts | 328° |
| 2026-05-07 13:46 | 37.60875 | -6.10632 | 11730 ft | 342 kts | 350° |
| 2026-05-07 13:47 | 37.63305 | -6.10515 | 12350 ft | 359 kts | 11° |
| 2026-05-07 13:47 | 37.65649 | -6.09285 | 13090 ft | 373 kts | 30° |
| 2026-05-07 13:47 | 37.67725 | -6.07259 | 13905 ft | 383 kts | 40° |
| 2026-05-07 13:47 | 37.69692 | -6.04934 | 14735 ft | 391 kts | 43° |
| 2026-05-07 13:48 | 37.71644 | -6.02510 | 15647 ft | 397 kts | 44° |
| 2026-05-07 13:48 | 37.73642 | -6.00073 | 16541 ft | 401 kts | 41° |
| 2026-05-07 13:48 | 37.75706 | -5.97655 | 17390 ft | 407 kts | 41° |
| 2026-05-07 13:48 | 37.77808 | -5.95233 | 18240 ft | 412 kts | 40° |
| 2026-05-07 13:49 | 37.79934 | -5.92785 | 19049 ft | 417 kts | 40° |
| 2026-05-07 13:49 | 37.82090 | -5.90300 | 19836 ft | 422 kts | 39° |
| 2026-05-07 13:49 | 37.84269 | -5.87784 | 20591 ft | 427 kts | 39° |
| 2026-05-07 13:49 | 37.86473 | -5.85239 | 21333 ft | 432 kts | 38° |
| 2026-05-07 13:50 | 37.88703 | -5.82660 | 22050 ft | 437 kts | 38° |
| 2026-05-07 13:50 | 37.90955 | -5.80051 | 22748 ft | 441 kts | 37° |
| 2026-05-07 13:50 | 37.93225 | -5.77420 | 23420 ft | 446 kts | 37° |
| 2026-05-07 13:50 | 37.95525 | -5.74753 | 24084 ft | 450 kts | 36° |
| 2026-05-07 13:51 | 37.97841 | -5.72064 | 24683 ft | 455 kts | 36° |
| 2026-05-07 13:51 | 38.00185 | -5.69342 | 25287 ft | 459 kts | 36° |
| 2026-05-07 13:51 | 38.02547 | -5.66596 | 25889 ft | 463 kts | 36° |
| 2026-05-07 13:51 | 38.04936 | -5.63814 | 26405 ft | 468 kts | 36° |
| 2026-05-07 13:52 | 38.07347 | -5.61005 | 26930 ft | 473 kts | 35° |
| 2026-05-07 13:52 | 38.09773 | -5.58174 | 27524 ft | 476 kts | 35° |
| 2026-05-07 13:52 | 38.12221 | -5.55319 | 28049 ft | 480 kts | 35° |
| 2026-05-07 13:52 | 38.14681 | -5.52445 | 28548 ft | 484 kts | 35° |
| 2026-05-07 13:53 | 38.17170 | -5.49537 | 29045 ft | 488 kts | 35° |
| 2026-05-07 13:53 | 38.19673 | -5.46601 | 29502 ft | 491 kts | 35° |
| 2026-05-07 13:53 | 38.22188 | -5.43646 | 30015 ft | 492 kts | 35° |
| 2026-05-07 13:53 | 38.24709 | -5.40700 | 30660 ft | 491 kts | 35° |
| 2026-05-07 13:54 | 38.27206 | -5.37775 | 31368 ft | 486 kts | 35° |
| 2026-05-07 13:54 | 38.29702 | -5.34884 | 31951 ft | 485 kts | 34° |
| 2026-05-07 13:54 | 38.32190 | -5.31978 | 32436 ft | 486 kts | 35° |
| 2026-05-07 13:54 | 38.34667 | -5.29061 | 32937 ft | 485 kts | 36° |
| 2026-05-07 13:55 | 38.37136 | -5.26146 | 33526 ft | 482 kts | 36° |
| 2026-05-07 13:55 | 38.39598 | -5.23236 | 33854 ft | 484 kts | 36° |
| 2026-05-07 13:55 | 38.42067 | -5.20316 | 33893 ft | 484 kts | 36° |
| 2026-05-07 13:56 | 38.47011 | -5.14468 | 33884 ft | 485 kts | 36° |
| 2026-05-07 13:56 | 38.49657 | -5.11900 | 33885 ft | 472 kts | 22° |
| 2026-05-07 13:56 | 38.52643 | -5.10318 | 33885 ft | 460 kts | 7° |
| 2026-05-07 13:56 | 38.55764 | -5.09787 | 33888 ft | 450 kts | 354° |
| 2026-05-07 13:57 | 38.58870 | -5.10098 | 33885 ft | 446 kts | 346° |
| 2026-05-07 13:57 | 38.64990 | -5.11260 | 33887 ft | 443 kts | 347° |
| 2026-05-07 13:58 | 38.71118 | -5.12044 | 33887 ft | 443 kts | 349° |
| 2026-05-07 13:58 | 38.77280 | -5.12661 | 33888 ft | 445 kts | 349° |
| 2026-05-07 13:59 | 38.83468 | -5.13291 | 33889 ft | 446 kts | 349° |
| 2026-05-07 13:59 | 38.89662 | -5.13926 | 33894 ft | 447 kts | 350° |
| 2026-05-07 14:00 | 38.95861 | -5.14560 | 33885 ft | 447 kts | 351° |
| 2026-05-07 14:00 | 39.02064 | -5.13542 | 33886 ft | 459 kts | 13° |
| 2026-05-07 14:00 | 39.04972 | -5.11780 | 33893 ft | 466 kts | 24° |
| 2026-05-07 14:01 | 39.07691 | -5.09469 | 33900 ft | 473 kts | 29° |
| 2026-05-07 14:01 | 39.13116 | -5.04426 | 34138 ft | 488 kts | 30° |
| 2026-05-07 14:01 | 39.15919 | -5.01920 | 34317 ft | 492 kts | 29° |
| 2026-05-07 14:02 | 39.18760 | -4.99468 | 34679 ft | 492 kts | 28° |
| 2026-05-07 14:02 | 39.21623 | -4.97061 | 35074 ft | 491 kts | 28° |
| 2026-05-07 14:02 | 39.24457 | -4.94700 | 35421 ft | 492 kts | 28° |
| 2026-05-07 14:02 | 39.27335 | -4.92301 | 35749 ft | 493 kts | 28° |
| 2026-05-07 14:03 | 39.30221 | -4.89904 | 36047 ft | 494 kts | 28° |
| 2026-05-07 14:03 | 39.33115 | -4.87517 | 36370 ft | 494 kts | 28° |
| 2026-05-07 14:03 | 39.36012 | -4.85116 | 36679 ft | 495 kts | 29° |
| 2026-05-07 14:03 | 39.38910 | -4.82704 | 36995 ft | 495 kts | 29° |
| 2026-05-07 14:04 | 39.41807 | -4.80287 | 37288 ft | 496 kts | 29° |
| 2026-05-07 14:04 | 39.44704 | -4.77866 | 37591 ft | 496 kts | 30° |
| 2026-05-07 14:04 | 39.47602 | -4.75440 | 37853 ft | 497 kts | 30° |
| 2026-05-07 14:05 | 39.53420 | -4.70561 | 37909 ft | 498 kts | 30° |
| 2026-05-07 14:05 | 39.59232 | -4.65678 | 37908 ft | 497 kts | 30° |
| 2026-05-07 14:06 | 39.65027 | -4.60798 | 37910 ft | 497 kts | 31° |
| 2026-05-07 14:06 | 39.70833 | -4.55904 | 37910 ft | 498 kts | 31° |
| 2026-05-07 14:07 | 39.76648 | -4.51017 | 37914 ft | 498 kts | 31° |
| 2026-05-07 14:07 | 39.82454 | -4.46088 | 37916 ft | 498 kts | 31° |
| 2026-05-07 14:08 | 39.88256 | -4.41149 | 37923 ft | 498 kts | 31° |
| 2026-05-07 14:08 | 39.94058 | -4.36205 | 37925 ft | 499 kts | 32° |
| 2026-05-07 14:09 | 40.00019 | -4.31599 | 37927 ft | 498 kts | 25° |
| 2026-05-07 14:09 | 40.06289 | -4.27771 | 37928 ft | 497 kts | 22° |
| 2026-05-07 14:10 | 40.12571 | -4.24119 | 37929 ft | 497 kts | 23° |
| 2026-05-07 14:10 | 40.18894 | -4.20303 | 37930 ft | 497 kts | 23° |
| 2026-05-07 14:11 | 40.25119 | -4.16492 | 37931 ft | 497 kts | 24° |
| 2026-05-07 14:11 | 40.31387 | -4.12660 | 37932 ft | 497 kts | 23° |
| 2026-05-07 14:12 | 40.37658 | -4.08823 | 37930 ft | 497 kts | 23° |
| 2026-05-07 14:12 | 40.43919 | -4.04970 | 37939 ft | 497 kts | 24° |
| 2026-05-07 14:13 | 40.50185 | -4.01100 | 37948 ft | 498 kts | 23° |
| 2026-05-07 14:13 | 40.56475 | -3.97283 | 37949 ft | 498 kts | 19° |
| 2026-05-07 14:14 | 40.63147 | -3.95317 | 37954 ft | 488 kts | 2° |
| 2026-05-07 14:14 | 40.69812 | -3.96037 | 37960 ft | 477 kts | 344° |
| 2026-05-07 14:15 | 40.76113 | -3.98857 | 37955 ft | 482 kts | 336° |
| 2026-05-07 14:15 | 40.82406 | -4.01941 | 37947 ft | 478 kts | 336° |
| 2026-05-07 14:16 | 40.88821 | -4.03932 | 37955 ft | 478 kts | 353° |
| 2026-05-07 14:16 | 40.95469 | -4.03209 | 37953 ft | 484 kts | 12° |
| 2026-05-07 14:17 | 41.01729 | -3.99797 | 37944 ft | 493 kts | 30° |
| 2026-05-07 14:17 | 41.07162 | -3.94149 | 37940 ft | 501 kts | 41° |
| 2026-05-07 14:18 | 41.12299 | -3.87825 | 37924 ft | 506 kts | 44° |
| 2026-05-07 14:18 | 41.17362 | -3.81328 | 37920 ft | 506 kts | 44° |
| 2026-05-07 14:19 | 41.22419 | -3.74839 | 37921 ft | 505 kts | 44° |
| 2026-05-07 14:19 | 41.27541 | -3.68467 | 37925 ft | 504 kts | 41° |
| 2026-05-07 14:20 | 41.32792 | -3.62371 | 37924 ft | 505 kts | 41° |
| 2026-05-07 14:20 | 41.38018 | -3.56132 | 37928 ft | 505 kts | 42° |
| 2026-05-07 14:21 | 41.43225 | -3.49865 | 37928 ft | 505 kts | 42° |
| 2026-05-07 14:21 | 41.48455 | -3.43623 | 37926 ft | 504 kts | 39° |
| 2026-05-07 14:22 | 41.54359 | -3.38606 | 37927 ft | 504 kts | 24° |
| 2026-05-07 14:22 | 41.60864 | -3.35100 | 37925 ft | 505 kts | 20° |
| 2026-05-07 14:23 | 41.67415 | -3.31709 | 37924 ft | 504 kts | 21° |
| 2026-05-07 14:23 | 41.73907 | -3.28158 | 37923 ft | 504 kts | 21° |
| 2026-05-07 14:24 | 41.80383 | -3.24558 | 37922 ft | 504 kts | 21° |
| 2026-05-07 14:24 | 41.86868 | -3.20970 | 37920 ft | 504 kts | 21° |
| 2026-05-07 14:25 | 41.93351 | -3.17367 | 37919 ft | 504 kts | 21° |
| 2026-05-07 14:25 | 41.99838 | -3.13743 | 37918 ft | 505 kts | 21° |
| 2026-05-07 14:26 | 42.05227 | -3.10723 | 37917 ft | 505 kts | 22° |
| 2026-05-07 14:26 | 42.11700 | -3.07088 | 37918 ft | 504 kts | 22° |
| 2026-05-07 14:27 | 42.18171 | -3.03461 | 37910 ft | 504 kts | 21° |
| 2026-05-07 14:27 | 42.24649 | -2.99816 | 37910 ft | 505 kts | 22° |
| 2026-05-07 14:28 | 42.31124 | -2.96147 | 37909 ft | 505 kts | 22° |
| 2026-05-07 14:28 | 42.37598 | -2.92468 | 37909 ft | 505 kts | 22° |
| 2026-05-07 14:29 | 42.44073 | -2.88787 | 37904 ft | 505 kts | 22° |
| 2026-05-07 14:29 | 42.50375 | -2.84619 | 37913 ft | 505 kts | 28° |
| 2026-05-07 14:30 | 42.56421 | -2.79895 | 37913 ft | 505 kts | 30° |
| 2026-05-07 14:30 | 42.62504 | -2.75132 | 37911 ft | 505 kts | 29° |
| 2026-05-07 14:31 | 42.68622 | -2.70437 | 37911 ft | 505 kts | 29° |
| 2026-05-07 14:31 | 42.74739 | -2.65761 | 37909 ft | 505 kts | 29° |
| 2026-05-07 14:32 | 42.80878 | -2.61120 | 37907 ft | 505 kts | 28° |
| 2026-05-07 14:32 | 42.87007 | -2.56460 | 37907 ft | 505 kts | 29° |
| 2026-05-07 14:33 | 42.93141 | -2.51771 | 37905 ft | 505 kts | 29° |
| 2026-05-07 14:33 | 42.99273 | -2.47070 | 37904 ft | 505 kts | 29° |
| 2026-05-07 14:34 | 43.05404 | -2.42357 | 37902 ft | 505 kts | 29° |
| 2026-05-07 14:34 | 43.11527 | -2.37640 | 37901 ft | 505 kts | 29° |
| 2026-05-07 14:35 | 43.17646 | -2.32914 | 37900 ft | 505 kts | 29° |
| 2026-05-07 14:35 | 43.23766 | -2.28176 | 37901 ft | 505 kts | 29° |
| 2026-05-07 14:36 | 43.29881 | -2.23432 | 37904 ft | 505 kts | 29° |
| 2026-05-07 14:36 | 43.35993 | -2.18679 | 37907 ft | 505 kts | 29° |
| 2026-05-07 14:37 | 43.42073 | -2.13974 | 37901 ft | 505 kts | 29° |
| 2026-05-07 14:37 | 43.51229 | -2.06803 | 37904 ft | 505 kts | 29° |
| 2026-05-07 14:38 | 43.57337 | -2.02000 | 37902 ft | 506 kts | 29° |
| 2026-05-07 14:38 | 43.63448 | -1.97192 | 37902 ft | 505 kts | 29° |
| 2026-05-07 14:39 | 43.69630 | -1.92577 | 37905 ft | 505 kts | 26° |
| 2026-05-07 14:39 | 43.75944 | -1.88315 | 37907 ft | 505 kts | 25° |
| 2026-05-07 14:40 | 43.82240 | -1.84013 | 37909 ft | 505 kts | 26° |
| 2026-05-07 14:40 | 43.88522 | -1.79653 | 37911 ft | 505 kts | 26° |
| 2026-05-07 14:41 | 43.94796 | -1.75272 | 37914 ft | 505 kts | 26° |
| 2026-05-07 14:41 | 44.01084 | -1.70920 | 37917 ft | 505 kts | 26° |
| 2026-05-07 14:42 | 44.07361 | -1.66547 | 37920 ft | 505 kts | 26° |
| 2026-05-07 14:42 | 44.13638 | -1.62150 | 37923 ft | 505 kts | 26° |
| 2026-05-07 14:43 | 44.19907 | -1.57744 | 37927 ft | 505 kts | 26° |
| 2026-05-07 14:43 | 44.26175 | -1.53325 | 37929 ft | 505 kts | 26° |
| 2026-05-07 14:44 | 44.32444 | -1.48895 | 37931 ft | 505 kts | 26° |
| 2026-05-07 14:44 | 44.38702 | -1.44463 | 37933 ft | 504 kts | 26° |
| 2026-05-07 14:45 | 44.44953 | -1.40024 | 37934 ft | 504 kts | 26° |
| 2026-05-07 14:45 | 44.51199 | -1.35578 | 37934 ft | 504 kts | 26° |
| 2026-05-07 14:46 | 44.57448 | -1.31119 | 37937 ft | 504 kts | 26° |
| 2026-05-07 14:46 | 44.63691 | -1.26653 | 37938 ft | 504 kts | 26° |
| 2026-05-07 14:47 | 44.69931 | -1.22180 | 37939 ft | 504 kts | 26° |
| 2026-05-07 14:47 | 44.76171 | -1.17694 | 37942 ft | 504 kts | 26° |
| 2026-05-07 14:48 | 44.82408 | -1.13201 | 37946 ft | 503 kts | 26° |
| 2026-05-07 14:48 | 44.88644 | -1.08697 | 37951 ft | 503 kts | 26° |
| 2026-05-07 14:49 | 44.94838 | -1.04241 | 37957 ft | 503 kts | 26° |
| 2026-05-07 14:49 | 45.01061 | -0.99727 | 37959 ft | 502 kts | 26° |
| 2026-05-07 14:50 | 45.07269 | -0.95196 | 37960 ft | 502 kts | 26° |
| 2026-05-07 14:50 | 45.13483 | -0.90652 | 37961 ft | 502 kts | 26° |
| 2026-05-07 14:51 | 45.19692 | -0.86106 | 37962 ft | 502 kts | 26° |
| 2026-05-07 14:51 | 45.25812 | -0.81309 | 37963 ft | 503 kts | 29° |
| 2026-05-07 14:52 | 45.31849 | -0.76305 | 37964 ft | 503 kts | 29° |
| 2026-05-07 14:52 | 45.37903 | -0.71325 | 37965 ft | 503 kts | 29° |
| 2026-05-07 14:53 | 45.43962 | -0.66355 | 37968 ft | 503 kts | 29° |
| 2026-05-07 14:53 | 45.50025 | -0.61383 | 37968 ft | 503 kts | 29° |
| 2026-05-07 14:54 | 45.56103 | -0.56459 | 37967 ft | 503 kts | 29° |
| 2026-05-07 14:54 | 45.62160 | -0.51512 | 37676 ft | 501 kts | 29° |
| 2026-05-07 14:55 | 45.65190 | -0.49026 | 37259 ft | 504 kts | 29° |
| 2026-05-07 14:55 | 45.68227 | -0.46529 | 36967 ft | 503 kts | 29° |
| 2026-05-07 14:55 | 45.71259 | -0.44032 | 36660 ft | 503 kts | 29° |
| 2026-05-07 14:55 | 45.74292 | -0.41531 | 36265 ft | 502 kts | 29° |
| 2026-05-07 14:56 | 45.77326 | -0.39025 | 35838 ft | 504 kts | 29° |
| 2026-05-07 14:56 | 45.80368 | -0.36509 | 35433 ft | 505 kts | 29° |
| 2026-05-07 14:56 | 45.83398 | -0.33997 | 35223 ft | 501 kts | 29° |
| 2026-05-07 14:56 | 45.86392 | -0.31516 | 34815 ft | 495 kts | 29° |
| 2026-05-07 14:57 | 45.89366 | -0.29047 | 34304 ft | 494 kts | 30° |
| 2026-05-07 14:57 | 45.92352 | -0.26565 | 33796 ft | 497 kts | 30° |
| 2026-05-07 14:57 | 45.95353 | -0.24067 | 33309 ft | 500 kts | 30° |
| 2026-05-07 14:57 | 45.98362 | -0.21560 | 32834 ft | 501 kts | 30° |
| 2026-05-07 14:58 | 46.01379 | -0.19043 | 32367 ft | 501 kts | 30° |
| 2026-05-07 14:58 | 46.04392 | -0.16525 | 31935 ft | 500 kts | 30° |
| 2026-05-07 14:58 | 46.07394 | -0.14014 | 31487 ft | 499 kts | 30° |
| 2026-05-07 14:58 | 46.10391 | -0.11503 | 31034 ft | 498 kts | 30° |
| 2026-05-07 14:59 | 46.13338 | -0.09032 | 30581 ft | 496 kts | 30° |
| 2026-05-07 14:59 | 46.16317 | -0.06530 | 30117 ft | 495 kts | 30° |
| 2026-05-07 14:59 | 46.19289 | -0.04031 | 29644 ft | 494 kts | 30° |
| 2026-05-07 14:59 | 46.22255 | -0.01534 | 29133 ft | 493 kts | 30° |
| 2026-05-07 15:00 | 46.25213 | 0.00959 | 28618 ft | 491 kts | 30° |
| 2026-05-07 15:00 | 46.28147 | 0.03438 | 28095 ft | 485 kts | 30° |
| 2026-05-07 15:00 | 46.31046 | 0.05887 | 27580 ft | 479 kts | 30° |
| 2026-05-07 15:00 | 46.33899 | 0.08300 | 27087 ft | 473 kts | 30° |
| 2026-05-07 15:01 | 46.36722 | 0.10691 | 26591 ft | 467 kts | 30° |
| 2026-05-07 15:01 | 46.39506 | 0.13052 | 26101 ft | 461 kts | 30° |
| 2026-05-07 15:01 | 46.42259 | 0.15389 | 25616 ft | 456 kts | 30° |
| 2026-05-07 15:01 | 46.44975 | 0.17698 | 25134 ft | 451 kts | 30° |
| 2026-05-07 15:02 | 46.47666 | 0.19989 | 24658 ft | 446 kts | 30° |
| 2026-05-07 15:02 | 46.50323 | 0.22253 | 24183 ft | 441 kts | 30° |
| 2026-05-07 15:02 | 46.52954 | 0.24498 | 23720 ft | 436 kts | 30° |
| 2026-05-07 15:02 | 46.55554 | 0.26719 | 23250 ft | 432 kts | 30° |
| 2026-05-07 15:03 | 46.58129 | 0.28921 | 22784 ft | 427 kts | 30° |
| 2026-05-07 15:03 | 46.60679 | 0.31103 | 22326 ft | 423 kts | 30° |
| 2026-05-07 15:03 | 46.63206 | 0.33269 | 21865 ft | 419 kts | 30° |
| 2026-05-07 15:03 | 46.65704 | 0.35411 | 21408 ft | 415 kts | 30° |
| 2026-05-07 15:04 | 46.68179 | 0.37537 | 20954 ft | 411 kts | 30° |
| 2026-05-07 15:04 | 46.70635 | 0.39649 | 20507 ft | 407 kts | 30° |
| 2026-05-07 15:04 | 46.73064 | 0.41739 | 20060 ft | 404 kts | 30° |
| 2026-05-07 15:04 | 46.75472 | 0.43814 | 19609 ft | 400 kts | 30° |
| 2026-05-07 15:05 | 46.77862 | 0.45866 | 19162 ft | 397 kts | 30° |
| 2026-05-07 15:05 | 46.80238 | 0.47892 | 18715 ft | 394 kts | 30° |
| 2026-05-07 15:05 | 46.82585 | 0.49911 | 18273 ft | 390 kts | 30° |
| 2026-05-07 15:05 | 46.84911 | 0.51922 | 17831 ft | 387 kts | 30° |
| 2026-05-07 15:06 | 46.87218 | 0.53925 | 17388 ft | 384 kts | 30° |
| 2026-05-07 15:06 | 46.89506 | 0.55915 | 16948 ft | 381 kts | 30° |
| 2026-05-07 15:06 | 46.91778 | 0.57893 | 16512 ft | 378 kts | 30° |
| 2026-05-07 15:06 | 46.94027 | 0.59853 | 16079 ft | 375 kts | 30° |
| 2026-05-07 15:07 | 46.96258 | 0.61799 | 15645 ft | 372 kts | 30° |
| 2026-05-07 15:07 | 46.98476 | 0.63735 | 15212 ft | 369 kts | 30° |
| 2026-05-07 15:07 | 47.00675 | 0.65655 | 14785 ft | 367 kts | 30° |
| 2026-05-07 15:07 | 47.02856 | 0.67557 | 14359 ft | 364 kts | 30° |
| 2026-05-07 15:08 | 47.05023 | 0.69454 | 13929 ft | 362 kts | 31° |
| 2026-05-07 15:08 | 47.07160 | 0.71365 | 13519 ft | 358 kts | 32° |
| 2026-05-07 15:08 | 47.09171 | 0.73471 | 13233 ft | 352 kts | 37° |
| 2026-05-07 15:08 | 47.11111 | 0.75660 | 12697 ft | 353 kts | 38° |
| 2026-05-07 15:09 | 47.13072 | 0.77806 | 12269 ft | 349 kts | 32° |
| 2026-05-07 15:09 | 47.15290 | 0.79122 | 11865 ft | 344 kts | 11° |
| 2026-05-07 15:09 | 47.17642 | 0.79160 | 11618 ft | 334 kts | 351° |
| 2026-05-07 15:09 | 47.19876 | 0.78394 | 11360 ft | 329 kts | 346° |
| 2026-05-07 15:10 | 47.22120 | 0.77954 | 11037 ft | 330 kts | 355° |
| 2026-05-07 15:10 | 47.24371 | 0.77512 | 10761 ft | 321 kts | 345° |
| 2026-05-07 15:10 | 47.26388 | 0.76314 | 10688 ft | 307 kts | 329° |
| 2026-05-07 15:10 | 47.28038 | 0.74440 | 10616 ft | 294 kts | 315° |
| 2026-05-07 15:11 | 47.29387 | 0.72243 | 10475 ft | 286 kts | 309° |
| 2026-05-07 15:11 | 47.30605 | 0.69968 | 10258 ft | 281 kts | 306° |
| 2026-05-07 15:11 | 47.31759 | 0.67659 | 9987 ft | 279 kts | 305° |
| 2026-05-07 15:11 | 47.32911 | 0.65370 | 9718 ft | 279 kts | 306° |
| 2026-05-07 15:12 | 47.34084 | 0.63089 | 9578 ft | 278 kts | 306° |
| 2026-05-07 15:12 | 47.35260 | 0.60833 | 9443 ft | 277 kts | 307° |
| 2026-05-07 15:12 | 47.36435 | 0.58589 | 9280 ft | 276 kts | 307° |
| 2026-05-07 15:12 | 47.37584 | 0.56324 | 9118 ft | 275 kts | 302° |
| 2026-05-07 15:13 | 47.38251 | 0.53710 | 8885 ft | 275 kts | 277° |
| 2026-05-07 15:13 | 47.38032 | 0.50944 | 8703 ft | 273 kts | 250° |
| 2026-05-07 15:13 | 47.36993 | 0.48640 | 8522 ft | 271 kts | 224° |
| 2026-05-07 15:13 | 47.35366 | 0.47292 | 8342 ft | 269 kts | 197° |
| 2026-05-07 15:14 | 47.33517 | 0.47154 | 8107 ft | 267 kts | 173° |
| 2026-05-07 15:14 | 47.32304 | 0.47486 | 7967 ft | 268 kts | 172° |
| 2026-05-07 15:14 | 47.30451 | 0.47660 | 7856 ft | 266 kts | 184° |
| 2026-05-07 15:14 | 47.28647 | 0.47258 | 7463 ft | 262 kts | 187° |
| 2026-05-07 15:15 | 47.26832 | 0.47429 | 7049 ft | 262 kts | 163° |
| 2026-05-07 15:15 | 47.25330 | 0.48789 | 6710 ft | 249 kts | 136° |
| 2026-05-07 15:15 | 47.24356 | 0.50807 | 6404 ft | 239 kts | 119° |
| 2026-05-07 15:15 | 47.23789 | 0.53076 | 5951 ft | 236 kts | 104° |
| 2026-05-07 15:16 | 47.23640 | 0.55446 | 5587 ft | 230 kts | 96° |
| 2026-05-07 15:16 | 47.23351 | 0.57753 | 5074 ft | 231 kts | 104° |
| 2026-05-07 15:16 | 47.22948 | 0.60032 | 4642 ft | 227 kts | 100° |
| 2026-05-07 15:16 | 47.23051 | 0.62239 | 4395 ft | 211 kts | 72° |
| 2026-05-07 15:17 | 47.23740 | 0.64027 | 4115 ft | 194 kts | 54° |
| 2026-05-07 15:17 | 47.24718 | 0.65321 | 3690 ft | 188 kts | 35° |
| 2026-05-07 15:17 | 47.25881 | 0.66116 | 3400 ft | 179 kts | 23° |
| 2026-05-07 15:17 | 47.27042 | 0.66620 | 3125 ft | 171 kts | 16° |
| 2026-05-07 15:18 | 47.28192 | 0.66961 | 2840 ft | 166 kts | 12° |
| 2026-05-07 15:18 | 47.29322 | 0.67209 | 2577 ft | 161 kts | 12° |
| 2026-05-07 15:18 | 47.30387 | 0.67547 | 2472 ft | 152 kts | 14° |
| 2026-05-07 15:18 | 47.31404 | 0.67939 | 2452 ft | 152 kts | 16° |
| 2026-05-07 15:19 | 47.32431 | 0.68371 | 2401 ft | 155 kts | 17° |
| 2026-05-07 15:19 | 47.33462 | 0.68807 | 2180 ft | 152 kts | 17° |
| 2026-05-07 15:19 | 47.34479 | 0.69229 | 1955 ft | 152 kts | 17° |
| 2026-05-07 15:19 | 47.35498 | 0.69646 | 1751 ft | 151 kts | 17° |
| 2026-05-07 15:20 | 47.36512 | 0.70057 | 1549 ft | 151 kts | 17° |
| 2026-05-07 15:20 | 47.37523 | 0.70466 | 1347 ft | 150 kts | 17° |
| 2026-05-07 15:20 | 47.38519 | 0.70866 | 1154 ft | 150 kts | 17° |
| 2026-05-07 15:20 | 47.39540 | 0.71277 | 954 ft | 150 kts | 17° |
| 2026-05-07 15:21 | 47.40543 | 0.71681 | 756 ft | 149 kts | 17° |
| 2026-05-07 15:21 | 47.41545 | 0.72086 | 525 ft | 149 kts | 17° |
| 2026-05-07 15:21 | 47.42525 | 0.72475 | 373 ft | 142 kts | 18° |
| 2026-05-07 15:21 | 47.43333 | 0.72803 | 371 ft | 95 kts | 16° |
| 2026-05-07 15:22 | 47.43827 | 0.73004 | 371 ft | 61 kts | 15° |
| 2026-05-07 15:22 | 47.44140 | 0.73128 | 371 ft | 30 kts | 14° |
| 2026-05-07 15:22 | 47.44239 | 0.73145 | 371 ft | 6 kts | 325° |
| 2026-05-07 15:22 | 47.44274 | 0.73071 | 371 ft | 10 kts | 296° |
| 2026-05-07 15:23 | 47.44291 | 0.72977 | 371 ft | 9 kts | 278° |
| 2026-05-07 15:23 | 47.44283 | 0.72886 | 371 ft | 9 kts | 245° |
| 2026-05-07 15:23 | 47.44227 | 0.72823 | 371 ft | 15 kts | 197° |
| 2026-05-07 15:23 | 47.44126 | 0.72784 | 371 ft | 14 kts | 194° |
| 2026-05-07 15:24 | 47.44031 | 0.72746 | 371 ft | 15 kts | 195° |
| 2026-05-07 15:24 | 47.43900 | 0.72694 | 371 ft | 20 kts | 195° |
| 2026-05-07 15:24 | 47.43770 | 0.72642 | 371 ft | 19 kts | 195° |
| 2026-05-07 15:24 | 47.43680 | 0.72603 | 371 ft | 11 kts | 207° |
| 2026-05-07 15:25 | 47.43657 | 0.72491 | 371 ft | 12 kts | 266° |
| 2026-05-07 15:25 | 47.43654 | 0.72375 | 371 ft | 11 kts | 272° |
| 2026-05-07 15:25 | 47.43662 | 0.72268 | 371 ft | 10 kts | 276° |
| 2026-05-07 15:25 | 47.43672 | 0.72147 | 371 ft | 16 kts | 275° |
| 2026-05-07 15:26 | 47.43675 | 0.71990 | 371 ft | 15 kts | 269° |
| 2026-05-07 15:26 | 47.43669 | 0.71842 | 371 ft | 14 kts | 263° |
| 2026-05-07 15:26 | 47.43645 | 0.71708 | 371 ft | 13 kts | 251° |
| 2026-05-07 15:26 | 47.43615 | 0.71587 | 371 ft | 12 kts | 241° |
| 2026-05-07 15:27 | 47.43557 | 0.71501 | 371 ft | 11 kts | 216° |
| 2026-05-07 15:27 | 47.43485 | 0.71522 | 371 ft | 11 kts | 147° |
| 2026-05-07 15:27 | 47.43421 | 0.71583 | 371 ft | 15 kts | 147° |
| 2026-05-07 15:27 | 47.43278 | 0.71715 | 371 ft | 26 kts | 149° |
| 2026-05-07 15:28 | 47.43133 | 0.71846 | 371 ft | 23 kts | 148° |
| 2026-05-07 15:28 | 47.43004 | 0.71967 | 371 ft | 21 kts | 147° |
| 2026-05-07 15:28 | 47.42886 | 0.72076 | 371 ft | 20 kts | 148° |
| 2026-05-07 15:28 | 47.42774 | 0.72181 | 371 ft | 19 kts | 147° |
| 2026-05-07 15:29 | 47.42654 | 0.72194 | 371 ft | 18 kts | 195° |
| 2026-05-07 15:29 | 47.42596 | 0.72119 | 371 ft | 11 kts | 281° |
| 2026-05-07 15:29 | 47.42637 | 0.72030 | 371 ft | 11 kts | 291° |
| 2026-05-07 15:29 | 47.42649 | 0.71976 | 371 ft | 0 kts | 287° |